Aviation Digital Data Service (ADDS)

Output produced by METARs form (1254 UTC 29 August 2016)
found at http://aviationweather.gov/adds/metars/
 
KFNT 291251Z 2913/3012 08004KT 4SM BR OVC004 
     FM291400 03005KT P6SM BKN012 
     FM291600 07005KT P6SM SCT028 
     FM291900 01005KT P6SM SCT250 
     FM300100 VRB03KT P6SM BKN250